sensor_id;sensor_type;location;lat;lon;timestamp;temperature;humidity
16301;DHT22;8258;51.020;4.248;2023-05-21T00:01:05;14.10;99.90
16301;DHT22;8258;51.020;4.248;2023-05-21T00:03:32;14.10;99.90
16301;DHT22;8258;51.020;4.248;2023-05-21T00:06:00;14.10;99.90
16301;DHT22;8258;51.020;4.248;2023-05-21T00:08:29;14.10;99.90
16301;DHT22;8258;51.020;4.248;2023-05-21T00:10:58;14.10;99.90
16301;DHT22;8258;51.020;4.248;2023-05-21T00:13:25;14.10;99.90
16301;DHT22;8258;51.020;4.248;2023-05-21T00:15:54;14.10;99.90
16301;DHT22;8258;51.020;4.248;2023-05-21T00:18:20;14.00;99.90
16301;DHT22;8258;51.020;4.248;2023-05-21T00:20:49;14.00;99.90
16301;DHT22;8258;51.020;4.248;2023-05-21T00:23:17;13.90;99.90
16301;DHT22;8258;51.020;4.248;2023-05-21T00:25:46;13.90;99.90
16301;DHT22;8258;51.020;4.248;2023-05-21T00:28:13;13.80;99.90
16301;DHT22;8258;51.020;4.248;2023-05-21T00:30:40;13.70;99.90
16301;DHT22;8258;51.020;4.248;2023-05-21T00:33:09;13.70;99.90
16301;DHT22;8258;51.020;4.248;2023-05-21T00:35:38;13.70;99.90
16301;DHT22;8258;51.020;4.248;2023-05-21T00:38:05;13.70;99.90
16301;DHT22;8258;51.020;4.248;2023-05-21T00:40:33;13.70;99.90
16301;DHT22;8258;51.020;4.248;2023-05-21T00:43:00;13.70;99.90
16301;DHT22;8258;51.020;4.248;2023-05-21T00:45:27;13.70;99.90
16301;DHT22;8258;51.020;4.248;2023-05-21T00:47:54;13.70;99.90
16301;DHT22;8258;51.020;4.248;2023-05-21T00:50:23;13.70;99.90
16301;DHT22;8258;51.020;4.248;2023-05-21T00:52:50;13.70;99.90
16301;DHT22;8258;51.020;4.248;2023-05-21T00:55:18;13.60;99.90
16301;DHT22;8258;51.020;4.248;2023-05-21T00:57:46;13.60;99.90
16301;DHT22;8258;51.020;4.248;2023-05-21T01:00:14;13.60;99.90
16301;DHT22;8258;51.020;4.248;2023-05-21T01:02:41;13.60;99.90
16301;DHT22;8258;51.020;4.248;2023-05-21T01:05:09;13.60;99.90
16301;DHT22;8258;51.020;4.248;2023-05-21T01:07:39;13.50;99.90
16301;DHT22;8258;51.020;4.248;2023-05-21T01:10:09;13.50;99.90
16301;DHT22;8258;51.020;4.248;2023-05-21T01:12:37;13.50;99.90
16301;DHT22;8258;51.020;4.248;2023-05-21T01:15:06;13.50;99.90
16301;DHT22;8258;51.020;4.248;2023-05-21T01:17:33;13.40;99.90
16301;DHT22;8258;51.020;4.248;2023-05-21T01:20:00;13.40;99.90
16301;DHT22;8258;51.020;4.248;2023-05-21T01:22:34;13.40;99.90
16301;DHT22;8258;51.020;4.248;2023-05-21T01:25:03;13.40;99.90
16301;DHT22;8258;51.020;4.248;2023-05-21T01:27:31;13.30;99.90
16301;DHT22;8258;51.020;4.248;2023-05-21T01:29:58;13.30;99.90
16301;DHT22;8258;51.020;4.248;2023-05-21T01:32:29;13.30;99.90
16301;DHT22;8258;51.020;4.248;2023-05-21T01:35:01;13.30;99.90
16301;DHT22;8258;51.020;4.248;2023-05-21T01:37:35;13.20;99.90
16301;DHT22;8258;51.020;4.248;2023-05-21T01:40:09;13.20;99.90
16301;DHT22;8258;51.020;4.248;2023-05-21T01:42:38;13.10;99.90
16301;DHT22;8258;51.020;4.248;2023-05-21T01:45:09;13.00;99.90
16301;DHT22;8258;51.020;4.248;2023-05-21T01:47:37;13.00;99.90
16301;DHT22;8258;51.020;4.248;2023-05-21T01:50:06;13.00;99.90
16301;DHT22;8258;51.020;4.248;2023-05-21T01:52:33;13.00;99.90
16301;DHT22;8258;51.020;4.248;2023-05-21T01:55:01;12.90;99.90
16301;DHT22;8258;51.020;4.248;2023-05-21T01:57:30;12.90;99.90
16301;DHT22;8258;51.020;4.248;2023-05-21T01:59:58;12.90;99.90
16301;DHT22;8258;51.020;4.248;2023-05-21T02:02:25;12.90;99.90
16301;DHT22;8258;51.020;4.248;2023-05-21T02:04:52;12.90;99.90
16301;DHT22;8258;51.020;4.248;2023-05-21T02:07:19;12.80;99.90
16301;DHT22;8258;51.020;4.248;2023-05-21T02:09:47;12.70;99.90
16301;DHT22;8258;51.020;4.248;2023-05-21T02:12:14;12.60;99.90
16301;DHT22;8258;51.020;4.248;2023-05-21T02:14:42;12.50;99.90
16301;DHT22;8258;51.020;4.248;2023-05-21T02:17:11;12.60;99.90
16301;DHT22;8258;51.020;4.248;2023-05-21T02:19:38;12.60;99.90
16301;DHT22;8258;51.020;4.248;2023-05-21T02:22:06;12.50;99.90
16301;DHT22;8258;51.020;4.248;2023-05-21T02:24:33;12.50;99.90
16301;DHT22;8258;51.020;4.248;2023-05-21T02:27:00;12.50;99.90
16301;DHT22;8258;51.020;4.248;2023-05-21T02:29:27;12.50;99.90
16301;DHT22;8258;51.020;4.248;2023-05-21T02:31:55;12.50;99.90
16301;DHT22;8258;51.020;4.248;2023-05-21T02:34:22;12.50;99.90
16301;DHT22;8258;51.020;4.248;2023-05-21T02:36:50;12.40;99.90
16301;DHT22;8258;51.020;4.248;2023-05-21T02:39:18;12.30;99.90
16301;DHT22;8258;51.020;4.248;2023-05-21T02:41:45;12.30;99.90
16301;DHT22;8258;51.020;4.248;2023-05-21T02:44:12;12.40;99.90
16301;DHT22;8258;51.020;4.248;2023-05-21T02:46:39;12.30;99.90
16301;DHT22;8258;51.020;4.248;2023-05-21T02:49:07;12.30;99.90
16301;DHT22;8258;51.020;4.248;2023-05-21T02:51:34;12.30;99.90
16301;DHT22;8258;51.020;4.248;2023-05-21T02:54:02;12.20;99.90
16301;DHT22;8258;51.020;4.248;2023-05-21T02:56:29;12.30;99.90
16301;DHT22;8258;51.020;4.248;2023-05-21T02:58:56;12.20;99.90
16301;DHT22;8258;51.020;4.248;2023-05-21T03:01:23;12.20;99.90
16301;DHT22;8258;51.020;4.248;2023-05-21T03:03:50;12.20;99.90
16301;DHT22;8258;51.020;4.248;2023-05-21T03:06:18;12.20;99.90
16301;DHT22;8258;51.020;4.248;2023-05-21T03:08:45;12.20;99.90
16301;DHT22;8258;51.020;4.248;2023-05-21T03:11:12;12.30;99.90
16301;DHT22;8258;51.020;4.248;2023-05-21T03:13:39;12.20;99.90
16301;DHT22;8258;51.020;4.248;2023-05-21T03:16:07;12.20;99.90
16301;DHT22;8258;51.020;4.248;2023-05-21T03:18:34;12.10;99.90
16301;DHT22;8258;51.020;4.248;2023-05-21T03:21:00;12.10;99.90
16301;DHT22;8258;51.020;4.248;2023-05-21T03:23:30;12.10;99.90
16301;DHT22;8258;51.020;4.248;2023-05-21T03:25:57;12.10;99.90
16301;DHT22;8258;51.020;4.248;2023-05-21T03:28:24;12.10;99.90
16301;DHT22;8258;51.020;4.248;2023-05-21T03:30:51;12.10;99.90
16301;DHT22;8258;51.020;4.248;2023-05-21T03:33:18;12.00;99.90
16301;DHT22;8258;51.020;4.248;2023-05-21T03:35:45;12.10;99.90
16301;DHT22;8258;51.020;4.248;2023-05-21T03:38:11;12.10;99.90
16301;DHT22;8258;51.020;4.248;2023-05-21T03:40:40;12.10;99.90
16301;DHT22;8258;51.020;4.248;2023-05-21T03:43:07;12.10;99.90
16301;DHT22;8258;51.020;4.248;2023-05-21T03:45:34;12.20;99.90
16301;DHT22;8258;51.020;4.248;2023-05-21T03:48:01;12.10;99.90
16301;DHT22;8258;51.020;4.248;2023-05-21T03:50:28;12.10;99.90
16301;DHT22;8258;51.020;4.248;2023-05-21T03:52:55;12.00;99.90
16301;DHT22;8258;51.020;4.248;2023-05-21T03:55:22;12.00;99.90
16301;DHT22;8258;51.020;4.248;2023-05-21T03:57:50;12.10;99.90
16301;DHT22;8258;51.020;4.248;2023-05-21T04:00:17;12.10;99.90
16301;DHT22;8258;51.020;4.248;2023-05-21T04:02:45;12.10;99.90
16301;DHT22;8258;51.020;4.248;2023-05-21T04:05:12;12.00;99.90
16301;DHT22;8258;51.020;4.248;2023-05-21T04:07:39;12.10;99.90
16301;DHT22;8258;51.020;4.248;2023-05-21T04:10:07;12.10;99.90
16301;DHT22;8258;51.020;4.248;2023-05-21T04:12:34;12.10;99.90
16301;DHT22;8258;51.020;4.248;2023-05-21T04:15:03;12.10;99.90
16301;DHT22;8258;51.020;4.248;2023-05-21T04:17:31;12.00;99.90
16301;DHT22;8258;51.020;4.248;2023-05-21T04:19:59;12.10;99.90
16301;DHT22;8258;51.020;4.248;2023-05-21T04:22:26;12.20;99.90
16301;DHT22;8258;51.020;4.248;2023-05-21T04:24:53;12.20;99.90
16301;DHT22;8258;51.020;4.248;2023-05-21T04:27:20;12.30;99.90
16301;DHT22;8258;51.020;4.248;2023-05-21T04:29:48;12.30;99.90
16301;DHT22;8258;51.020;4.248;2023-05-21T04:32:16;12.30;99.90
16301;DHT22;8258;51.020;4.248;2023-05-21T04:34:43;12.30;99.90
16301;DHT22;8258;51.020;4.248;2023-05-21T04:37:10;12.40;99.90
16301;DHT22;8258;51.020;4.248;2023-05-21T04:39:37;12.40;99.90
16301;DHT22;8258;51.020;4.248;2023-05-21T04:42:05;12.50;99.90
16301;DHT22;8258;51.020;4.248;2023-05-21T04:44:35;12.50;99.90
16301;DHT22;8258;51.020;4.248;2023-05-21T04:47:03;12.60;99.90
16301;DHT22;8258;51.020;4.248;2023-05-21T04:49:31;12.60;99.90
16301;DHT22;8258;51.020;4.248;2023-05-21T04:51:59;12.60;99.90
16301;DHT22;8258;51.020;4.248;2023-05-21T04:54:26;12.60;99.90
16301;DHT22;8258;51.020;4.248;2023-05-21T04:56:53;12.60;99.90
16301;DHT22;8258;51.020;4.248;2023-05-21T04:59:20;12.70;99.90
16301;DHT22;8258;51.020;4.248;2023-05-21T05:01:47;12.80;99.90
16301;DHT22;8258;51.020;4.248;2023-05-21T05:04:14;13.00;99.90
16301;DHT22;8258;51.020;4.248;2023-05-21T05:06:42;13.10;99.90
16301;DHT22;8258;51.020;4.248;2023-05-21T05:09:09;13.10;99.90
16301;DHT22;8258;51.020;4.248;2023-05-21T05:11:36;13.10;99.90
16301;DHT22;8258;51.020;4.248;2023-05-21T05:14:03;13.20;99.90
16301;DHT22;8258;51.020;4.248;2023-05-21T05:16:30;13.30;99.90
16301;DHT22;8258;51.020;4.248;2023-05-21T05:18:58;13.40;99.90
16301;DHT22;8258;51.020;4.248;2023-05-21T05:21:25;13.50;99.90
16301;DHT22;8258;51.020;4.248;2023-05-21T05:23:54;13.70;99.90
16301;DHT22;8258;51.020;4.248;2023-05-21T05:26:20;13.80;99.90
16301;DHT22;8258;51.020;4.248;2023-05-21T05:28:47;13.90;99.90
16301;DHT22;8258;51.020;4.248;2023-05-21T05:31:14;14.00;99.90
16301;DHT22;8258;51.020;4.248;2023-05-21T05:33:41;14.10;99.90
16301;DHT22;8258;51.020;4.248;2023-05-21T05:36:08;14.20;99.90
16301;DHT22;8258;51.020;4.248;2023-05-21T05:38:35;14.30;99.90
16301;DHT22;8258;51.020;4.248;2023-05-21T05:41:03;14.40;99.90
16301;DHT22;8258;51.020;4.248;2023-05-21T05:43:30;14.30;99.90
16301;DHT22;8258;51.020;4.248;2023-05-21T05:45:57;14.50;99.90
16301;DHT22;8258;51.020;4.248;2023-05-21T05:48:24;14.60;99.90
16301;DHT22;8258;51.020;4.248;2023-05-21T05:50:51;14.70;99.90
16301;DHT22;8258;51.020;4.248;2023-05-21T05:53:20;14.80;99.90
16301;DHT22;8258;51.020;4.248;2023-05-21T05:55:47;14.90;99.90
16301;DHT22;8258;51.020;4.248;2023-05-21T05:58:16;15.00;99.90
16301;DHT22;8258;51.020;4.248;2023-05-21T06:00:43;15.10;99.90
16301;DHT22;8258;51.020;4.248;2023-05-21T06:03:10;15.30;99.90
16301;DHT22;8258;51.020;4.248;2023-05-21T06:05:37;15.40;99.90
16301;DHT22;8258;51.020;4.248;2023-05-21T06:08:04;15.40;99.90
16301;DHT22;8258;51.020;4.248;2023-05-21T06:10:31;15.50;99.90
16301;DHT22;8258;51.020;4.248;2023-05-21T06:12:58;15.60;99.90
16301;DHT22;8258;51.020;4.248;2023-05-21T06:15:26;15.60;99.90
16301;DHT22;8258;51.020;4.248;2023-05-21T06:17:53;15.60;99.90
16301;DHT22;8258;51.020;4.248;2023-05-21T06:20:20;15.80;99.90
16301;DHT22;8258;51.020;4.248;2023-05-21T06:22:47;15.90;99.90
16301;DHT22;8258;51.020;4.248;2023-05-21T06:25:14;16.00;99.90
16301;DHT22;8258;51.020;4.248;2023-05-21T06:27:41;16.20;99.90
16301;DHT22;8258;51.020;4.248;2023-05-21T06:30:08;16.50;99.90
16301;DHT22;8258;51.020;4.248;2023-05-21T06:32:37;16.70;99.90
16301;DHT22;8258;51.020;4.248;2023-05-21T06:35:04;16.70;99.90
16301;DHT22;8258;51.020;4.248;2023-05-21T06:37:31;16.70;99.90
16301;DHT22;8258;51.020;4.248;2023-05-21T06:39:58;16.90;99.90
16301;DHT22;8258;51.020;4.248;2023-05-21T06:42:25;16.90;99.90
16301;DHT22;8258;51.020;4.248;2023-05-21T06:44:52;17.00;99.90
16301;DHT22;8258;51.020;4.248;2023-05-21T06:47:19;17.00;99.90
16301;DHT22;8258;51.020;4.248;2023-05-21T06:49:47;17.20;99.90
16301;DHT22;8258;51.020;4.248;2023-05-21T06:52:14;17.40;99.90
16301;DHT22;8258;51.020;4.248;2023-05-21T06:54:41;17.50;99.90
16301;DHT22;8258;51.020;4.248;2023-05-21T06:57:08;17.80;99.90
16301;DHT22;8258;51.020;4.248;2023-05-21T06:59:35;18.10;99.90
16301;DHT22;8258;51.020;4.248;2023-05-21T07:02:02;18.00;99.90
16301;DHT22;8258;51.020;4.248;2023-05-21T07:04:29;17.90;99.90
16301;DHT22;8258;51.020;4.248;2023-05-21T07:06:57;17.90;99.90
16301;DHT22;8258;51.020;4.248;2023-05-21T07:09:24;18.00;99.90
16301;DHT22;8258;51.020;4.248;2023-05-21T07:11:51;18.30;99.90
16301;DHT22;8258;51.020;4.248;2023-05-21T07:14:18;18.30;99.90
16301;DHT22;8258;51.020;4.248;2023-05-21T07:16:45;18.60;99.90
16301;DHT22;8258;51.020;4.248;2023-05-21T07:19:13;19.50;99.90
16301;DHT22;8258;51.020;4.248;2023-05-21T07:21:40;19.90;99.90
16301;DHT22;8258;51.020;4.248;2023-05-21T07:24:08;19.90;99.90
16301;DHT22;8258;51.020;4.248;2023-05-21T07:26:35;19.80;99.90
16301;DHT22;8258;51.020;4.248;2023-05-21T07:29:02;19.60;99.90
16301;DHT22;8258;51.020;4.248;2023-05-21T07:31:29;20.10;99.90
16301;DHT22;8258;51.020;4.248;2023-05-21T07:33:56;19.90;99.90
16301;DHT22;8258;51.020;4.248;2023-05-21T07:36:23;19.70;99.90
16301;DHT22;8258;51.020;4.248;2023-05-21T07:38:52;20.00;99.90
16301;DHT22;8258;51.020;4.248;2023-05-21T07:41:20;20.30;99.90
16301;DHT22;8258;51.020;4.248;2023-05-21T07:43:48;20.70;99.90
16301;DHT22;8258;51.020;4.248;2023-05-21T07:46:15;21.30;99.90
16301;DHT22;8258;51.020;4.248;2023-05-21T07:48:42;21.80;99.90
16301;DHT22;8258;51.020;4.248;2023-05-21T07:51:09;20.70;99.90
16301;DHT22;8258;51.020;4.248;2023-05-21T07:53:36;19.90;99.90
16301;DHT22;8258;51.020;4.248;2023-05-21T07:56:03;20.20;99.90
16301;DHT22;8258;51.020;4.248;2023-05-21T07:58:32;20.60;99.90
16301;DHT22;8258;51.020;4.248;2023-05-21T08:01:00;21.50;99.90
16301;DHT22;8258;51.020;4.248;2023-05-21T08:03:28;22.10;99.90
16301;DHT22;8258;51.020;4.248;2023-05-21T08:05:55;22.70;99.90
16301;DHT22;8258;51.020;4.248;2023-05-21T08:21:21;24.30;99.90
16301;DHT22;8258;51.020;4.248;2023-05-21T08:23:50;24.00;99.90
16301;DHT22;8258;51.020;4.248;2023-05-21T08:26:17;24.10;99.90
16301;DHT22;8258;51.020;4.248;2023-05-21T08:28:44;24.60;99.90
16301;DHT22;8258;51.020;4.248;2023-05-21T08:36:24;25.40;99.90
16301;DHT22;8258;51.020;4.248;2023-05-21T08:38:51;25.60;99.90
16301;DHT22;8258;51.020;4.248;2023-05-21T08:41:20;25.10;99.90
16301;DHT22;8258;51.020;4.248;2023-05-21T08:43:52;25.30;99.90
16301;DHT22;8258;51.020;4.248;2023-05-21T08:46:22;25.80;99.90
16301;DHT22;8258;51.020;4.248;2023-05-21T08:48:50;26.10;99.90
16301;DHT22;8258;51.020;4.248;2023-05-21T08:51:20;26.00;99.90
16301;DHT22;8258;51.020;4.248;2023-05-21T08:53:49;26.90;99.00
16301;DHT22;8258;51.020;4.248;2023-05-21T08:56:16;27.30;98.00
16301;DHT22;8258;51.020;4.248;2023-05-21T08:58:45;27.10;97.60
16301;DHT22;8258;51.020;4.248;2023-05-21T09:16:46;27.40;97.10
16301;DHT22;8258;51.020;4.248;2023-05-21T09:19:13;27.40;96.60
16301;DHT22;8258;51.020;4.248;2023-05-21T09:21:40;27.50;96.10
16301;DHT22;8258;51.020;4.248;2023-05-21T09:24:08;27.40;96.50
16301;DHT22;8258;51.020;4.248;2023-05-21T09:26:35;27.60;95.30
16301;DHT22;8258;51.020;4.248;2023-05-21T09:29:02;27.90;95.20
16301;DHT22;8258;51.020;4.248;2023-05-21T09:31:29;28.10;95.00
16301;DHT22;8258;51.020;4.248;2023-05-21T09:33:58;28.10;94.60
16301;DHT22;8258;51.020;4.248;2023-05-21T09:36:26;28.20;94.30
16301;DHT22;8258;51.020;4.248;2023-05-21T09:38:53;27.90;94.40
16301;DHT22;8258;51.020;4.248;2023-05-21T09:41:30;28.10;94.30
16301;DHT22;8258;51.020;4.248;2023-05-21T09:43:58;28.00;94.00
16301;DHT22;8258;51.020;4.248;2023-05-21T09:46:25;28.00;93.60
16301;DHT22;8258;51.020;4.248;2023-05-21T09:48:53;27.70;94.20
16301;DHT22;8258;51.020;4.248;2023-05-21T09:51:21;27.30;94.70
16301;DHT22;8258;51.020;4.248;2023-05-21T09:53:49;26.70;95.90
16301;DHT22;8258;51.020;4.248;2023-05-21T09:56:19;26.10;97.70
16301;DHT22;8258;51.020;4.248;2023-05-21T09:58:49;26.30;98.10
16301;DHT22;8258;51.020;4.248;2023-05-21T10:01:18;27.00;96.30
16301;DHT22;8258;51.020;4.248;2023-05-21T10:03:49;27.60;96.30
16301;DHT22;8258;51.020;4.248;2023-05-21T10:16:33;28.20;93.10
16301;DHT22;8258;51.020;4.248;2023-05-21T10:19:01;28.10;92.80
16301;DHT22;8258;51.020;4.248;2023-05-21T10:21:35;28.80;92.00
16301;DHT22;8258;51.020;4.248;2023-05-21T10:24:06;28.60;92.40
16301;DHT22;8258;51.020;4.248;2023-05-21T10:26:35;28.50;92.30
16301;DHT22;8258;51.020;4.248;2023-05-21T10:29:02;27.80;93.20
16301;DHT22;8258;51.020;4.248;2023-05-21T10:31:32;28.30;92.90
16301;DHT22;8258;51.020;4.248;2023-05-21T10:33:59;29.30;91.70
16301;DHT22;8258;51.020;4.248;2023-05-21T10:36:29;29.30;90.50
16301;DHT22;8258;51.020;4.248;2023-05-21T10:38:57;29.20;91.10
16301;DHT22;8258;51.020;4.248;2023-05-21T10:41:27;29.10;90.70
16301;DHT22;8258;51.020;4.248;2023-05-21T10:44:03;28.60;90.90
16301;DHT22;8258;51.020;4.248;2023-05-21T10:52:24;29.90;90.10
16301;DHT22;8258;51.020;4.248;2023-05-21T10:55:01;28.30;91.20
16301;DHT22;8258;51.020;4.248;2023-05-21T10:57:45;26.90;94.30
16301;DHT22;8258;51.020;4.248;2023-05-21T11:00:18;26.20;96.20
16301;DHT22;8258;51.020;4.248;2023-05-21T11:02:47;26.60;96.10
16301;DHT22;8258;51.020;4.248;2023-05-21T11:05:16;28.00;94.60
16301;DHT22;8258;51.020;4.248;2023-05-21T11:08:01;28.80;92.50
16301;DHT22;8258;51.020;4.248;2023-05-21T11:10:29;28.80;92.40
16301;DHT22;8258;51.020;4.248;2023-05-21T11:13:21;28.70;91.20
16301;DHT22;8258;51.020;4.248;2023-05-21T11:16:07;27.80;92.70
16301;DHT22;8258;51.020;4.248;2023-05-21T11:19:00;27.70;94.30
16301;DHT22;8258;51.020;4.248;2023-05-21T11:21:29;28.10;93.70
16301;DHT22;8258;51.020;4.248;2023-05-21T11:24:01;27.40;94.20
16301;DHT22;8258;51.020;4.248;2023-05-21T11:26:31;27.20;95.40
16301;DHT22;8258;51.020;4.248;2023-05-21T11:29:18;27.60;95.70
16301;DHT22;8258;51.020;4.248;2023-05-21T11:31:46;27.30;95.40
16301;DHT22;8258;51.020;4.248;2023-05-21T11:34:13;26.60;96.80
16301;DHT22;8258;51.020;4.248;2023-05-21T11:36:44;26.00;97.90
16301;DHT22;8258;51.020;4.248;2023-05-21T11:39:13;25.90;99.10
16301;DHT22;8258;51.020;4.248;2023-05-21T11:41:52;25.90;98.30
16301;DHT22;8258;51.020;4.248;2023-05-21T11:44:36;25.60;99.60
16301;DHT22;8258;51.020;4.248;2023-05-21T11:47:05;25.20;99.90
16301;DHT22;8258;51.020;4.248;2023-05-21T11:49:33;25.60;99.90
16301;DHT22;8258;51.020;4.248;2023-05-21T11:52:01;25.70;99.90
16301;DHT22;8258;51.020;4.248;2023-05-21T11:54:30;25.80;99.90
16301;DHT22;8258;51.020;4.248;2023-05-21T11:57:02;25.90;99.90
16301;DHT22;8258;51.020;4.248;2023-05-21T11:59:33;25.80;99.90
16301;DHT22;8258;51.020;4.248;2023-05-21T12:02:00;26.40;99.90
16301;DHT22;8258;51.020;4.248;2023-05-21T12:04:29;27.10;98.30
16301;DHT22;8258;51.020;4.248;2023-05-21T12:06:56;27.60;97.00
16301;DHT22;8258;51.020;4.248;2023-05-21T12:09:24;27.90;97.20
16301;DHT22;8258;51.020;4.248;2023-05-21T12:11:52;28.00;96.60
16301;DHT22;8258;51.020;4.248;2023-05-21T12:14:20;28.30;96.80
16301;DHT22;8258;51.020;4.248;2023-05-21T12:16:49;28.90;94.00
16301;DHT22;8258;51.020;4.248;2023-05-21T12:19:16;28.20;94.80
16301;DHT22;8258;51.020;4.248;2023-05-21T12:21:44;27.50;96.70
16301;DHT22;8258;51.020;4.248;2023-05-21T12:24:11;26.70;97.90
16301;DHT22;8258;51.020;4.248;2023-05-21T12:26:38;26.10;98.90
16301;DHT22;8258;51.020;4.248;2023-05-21T12:29:06;25.80;99.60
16301;DHT22;8258;51.020;4.248;2023-05-21T12:31:46;25.60;99.90
16301;DHT22;8258;51.020;4.248;2023-05-21T12:34:15;25.70;99.90
16301;DHT22;8258;51.020;4.248;2023-05-21T12:37:03;26.30;99.60
16301;DHT22;8258;51.020;4.248;2023-05-21T12:39:31;26.80;98.90
16301;DHT22;8258;51.020;4.248;2023-05-21T12:41:58;26.70;99.60
16301;DHT22;8258;51.020;4.248;2023-05-21T12:44:28;26.60;99.50
16301;DHT22;8258;51.020;4.248;2023-05-21T12:46:56;26.70;99.50
16301;DHT22;8258;51.020;4.248;2023-05-21T12:49:32;26.50;99.90
16301;DHT22;8258;51.020;4.248;2023-05-21T12:52:13;26.60;99.70
16301;DHT22;8258;51.020;4.248;2023-05-21T12:54:51;27.20;98.80
16301;DHT22;8258;51.020;4.248;2023-05-21T12:57:19;27.50;98.20
16301;DHT22;8258;51.020;4.248;2023-05-21T12:59:49;27.50;98.20
16301;DHT22;8258;51.020;4.248;2023-05-21T13:02:22;27.70;97.60
16301;DHT22;8258;51.020;4.248;2023-05-21T13:04:55;27.70;97.90
16301;DHT22;8258;51.020;4.248;2023-05-21T13:07:23;27.10;98.50
16301;DHT22;8258;51.020;4.248;2023-05-21T13:09:51;27.20;98.70
16301;DHT22;8258;51.020;4.248;2023-05-21T13:12:19;26.90;98.70
16301;DHT22;8258;51.020;4.248;2023-05-21T13:14:47;26.90;99.10
16301;DHT22;8258;51.020;4.248;2023-05-21T13:17:14;27.30;98.80
16301;DHT22;8258;51.020;4.248;2023-05-21T13:19:41;27.20;98.20
16301;DHT22;8258;51.020;4.248;2023-05-21T13:22:09;27.10;97.90
16301;DHT22;8258;51.020;4.248;2023-05-21T13:24:36;26.80;98.90
16301;DHT22;8258;51.020;4.248;2023-05-21T13:27:04;26.70;99.40
16301;DHT22;8258;51.020;4.248;2023-05-21T13:29:31;26.60;99.80
16301;DHT22;8258;51.020;4.248;2023-05-21T13:31:58;26.60;99.90
16301;DHT22;8258;51.020;4.248;2023-05-21T13:34:25;26.70;99.80
16301;DHT22;8258;51.020;4.248;2023-05-21T13:36:52;26.80;99.70
16301;DHT22;8258;51.020;4.248;2023-05-21T13:39:21;27.80;98.20
16301;DHT22;8258;51.020;4.248;2023-05-21T13:41:52;27.50;98.20
16301;DHT22;8258;51.020;4.248;2023-05-21T13:44:19;27.00;98.60
16301;DHT22;8258;51.020;4.248;2023-05-21T13:46:46;26.40;99.90
16301;DHT22;8258;51.020;4.248;2023-05-21T13:49:13;26.20;99.90
16301;DHT22;8258;51.020;4.248;2023-05-21T13:51:40;25.70;99.90
16301;DHT22;8258;51.020;4.248;2023-05-21T13:54:07;26.70;99.90
16301;DHT22;8258;51.020;4.248;2023-05-21T13:56:36;27.20;99.30
16301;DHT22;8258;51.020;4.248;2023-05-21T13:59:03;27.00;99.60
16301;DHT22;8258;51.020;4.248;2023-05-21T14:01:30;26.60;99.90
16301;DHT22;8258;51.020;4.248;2023-05-21T14:03:57;26.40;99.90
16301;DHT22;8258;51.020;4.248;2023-05-21T14:06:29;26.20;99.90
16301;DHT22;8258;51.020;4.248;2023-05-21T14:08:56;26.10;99.90
16301;DHT22;8258;51.020;4.248;2023-05-21T14:11:23;27.30;99.90
16301;DHT22;8258;51.020;4.248;2023-05-21T14:13:51;28.90;97.40
16301;DHT22;8258;51.020;4.248;2023-05-21T14:16:19;30.90;94.50
16301;DHT22;8258;51.020;4.248;2023-05-21T14:18:49;31.30;92.20
16301;DHT22;8258;51.020;4.248;2023-05-21T14:21:16;30.60;92.50
16301;DHT22;8258;51.020;4.248;2023-05-21T14:23:43;29.60;93.70
16301;DHT22;8258;51.020;4.248;2023-05-21T14:26:10;28.80;95.40
16301;DHT22;8258;51.020;4.248;2023-05-21T14:28:37;29.50;94.70
16301;DHT22;8258;51.020;4.248;2023-05-21T14:31:06;30.50;93.00
16301;DHT22;8258;51.020;4.248;2023-05-21T14:33:35;30.30;92.70
16301;DHT22;8258;51.020;4.248;2023-05-21T14:36:02;30.00;92.50
16301;DHT22;8258;51.020;4.248;2023-05-21T14:38:30;30.50;93.00
16301;DHT22;8258;51.020;4.248;2023-05-21T14:40:57;31.20;91.30
16301;DHT22;8258;51.020;4.248;2023-05-21T14:43:24;31.10;90.60
16301;DHT22;8258;51.020;4.248;2023-05-21T14:45:51;31.20;90.10
16301;DHT22;8258;51.020;4.248;2023-05-21T14:48:19;30.40;91.10
16301;DHT22;8258;51.020;4.248;2023-05-21T14:50:48;30.20;90.90
16301;DHT22;8258;51.020;4.248;2023-05-21T14:53:16;29.30;91.80
16301;DHT22;8258;51.020;4.248;2023-05-21T14:55:43;28.60;93.20
16301;DHT22;8258;51.020;4.248;2023-05-21T14:58:11;28.00;95.90
16301;DHT22;8258;51.020;4.248;2023-05-21T15:00:38;28.10;96.60
16301;DHT22;8258;51.020;4.248;2023-05-21T15:03:05;28.30;95.50
16301;DHT22;8258;51.020;4.248;2023-05-21T15:05:33;29.40;94.30
16301;DHT22;8258;51.020;4.248;2023-05-21T15:08:00;29.90;92.90
16301;DHT22;8258;51.020;4.248;2023-05-21T15:10:29;29.30;93.30
16301;DHT22;8258;51.020;4.248;2023-05-21T15:12:55;28.50;94.30
16301;DHT22;8258;51.020;4.248;2023-05-21T15:15:22;28.60;95.40
16301;DHT22;8258;51.020;4.248;2023-05-21T15:17:49;29.30;93.70
16301;DHT22;8258;51.020;4.248;2023-05-21T15:20:17;28.90;94.70
16301;DHT22;8258;51.020;4.248;2023-05-21T15:22:46;29.30;94.40
16301;DHT22;8258;51.020;4.248;2023-05-21T15:25:13;29.60;93.60
16301;DHT22;8258;51.020;4.248;2023-05-21T15:27:43;29.90;92.60
16301;DHT22;8258;51.020;4.248;2023-05-21T15:30:11;28.90;92.90
16301;DHT22;8258;51.020;4.248;2023-05-21T15:32:37;28.20;95.60
16301;DHT22;8258;51.020;4.248;2023-05-21T15:35:05;28.50;95.30
16301;DHT22;8258;51.020;4.248;2023-05-21T15:37:32;28.40;95.40
16301;DHT22;8258;51.020;4.248;2023-05-21T15:40:01;28.50;95.00
16301;DHT22;8258;51.020;4.248;2023-05-21T15:42:28;29.30;94.10
16301;DHT22;8258;51.020;4.248;2023-05-21T15:44:56;29.80;93.30
16301;DHT22;8258;51.020;4.248;2023-05-21T15:47:23;29.80;92.80
16301;DHT22;8258;51.020;4.248;2023-05-21T15:49:50;29.60;92.90
16301;DHT22;8258;51.020;4.248;2023-05-21T15:52:17;29.50;93.30
16301;DHT22;8258;51.020;4.248;2023-05-21T15:54:45;28.20;95.30
16301;DHT22;8258;51.020;4.248;2023-05-21T15:57:13;27.20;97.30
16301;DHT22;8258;51.020;4.248;2023-05-21T15:59:40;26.80;98.50
16301;DHT22;8258;51.020;4.248;2023-05-21T16:02:07;27.80;98.40
16301;DHT22;8258;51.020;4.248;2023-05-21T16:04:35;28.20;96.60
16301;DHT22;8258;51.020;4.248;2023-05-21T16:07:02;27.70;97.30
16301;DHT22;8258;51.020;4.248;2023-05-21T16:09:29;27.20;98.60
16301;DHT22;8258;51.020;4.248;2023-05-21T16:11:56;26.70;99.20
16301;DHT22;8258;51.020;4.248;2023-05-21T16:14:25;26.70;99.50
16301;DHT22;8258;51.020;4.248;2023-05-21T16:16:53;26.20;99.90
16301;DHT22;8258;51.020;4.248;2023-05-21T16:19:20;25.90;99.90
16301;DHT22;8258;51.020;4.248;2023-05-21T16:21:47;25.60;99.90
16301;DHT22;8258;51.020;4.248;2023-05-21T16:24:15;25.10;99.90
16301;DHT22;8258;51.020;4.248;2023-05-21T16:26:42;24.70;99.90
16301;DHT22;8258;51.020;4.248;2023-05-21T16:29:10;24.60;99.90
16301;DHT22;8258;51.020;4.248;2023-05-21T16:31:38;24.50;99.90
16301;DHT22;8258;51.020;4.248;2023-05-21T16:34:05;24.40;99.90
16301;DHT22;8258;51.020;4.248;2023-05-21T16:36:32;24.20;99.90
16301;DHT22;8258;51.020;4.248;2023-05-21T16:38:59;24.00;99.90
16301;DHT22;8258;51.020;4.248;2023-05-21T16:41:27;23.90;99.90